Time;durP1;ratioP1;P1;durP2;ratioP2;P2;SDS_P1;SDS_P2;PMS_P1;PMS_P2;Temp;Humidity;BMP_temperature;BMP_pressure;BME280_temperature;BME280_humidity;BME280_pressure;Samples;Min_cycle;Max_cycle;Signal;HPM_P1;HPM_P2
2022/01/20 00:01:14;;;;;;;7.60;3.90;;;;;;;-2.30;76.70;98643.30;105244;1270;75935;-23
2022/01/20 00:03:43;;;;;;;5.40;3.20;;;;;;;-2.52;77.05;98640.31;105174;1271;74615;-22
2022/01/20 00:28:20;;;;;;;6.20;3.70;;;;;;;-3.11;78.39;98615.25;105212;1271;74973;-22
2022/01/20 00:30:55;;;;;;;6.20;3.40;;;;;;;-2.63;76.86;98613.51;104943;1271;72989;-23
2022/01/20 00:39:04;;;;;;;;;;;;;;;-2.91;77.00;98609.52;105248;1271;75380;-23
2022/01/20 00:41:32;;;;;;;6.90;2.90;;;;;;;-3.23;78.00;98602.91;105120;1271;75838;-23
2022/01/20 00:44:00;;;;;;;10.80;4.20;;;;;;;-3.42;78.64;98599.61;105191;1270;74331;-23
2022/01/20 00:46:29;;;;;;;6.60;5.20;;;;;;;-3.23;78.40;98600.89;105114;1271;61124;-23
2022/01/20 00:48:57;;;;;;;10.20;6.20;;;;;;;-2.76;76.61;98597.11;104958;1271;61029;-23
2022/01/20 00:51:25;;;;;;;6.80;4.10;;;;;;;-2.71;75.94;98593.08;104922;1271;75515;-23
2022/01/20 00:53:54;;;;;;;7.00;3.20;;;;;;;-2.88;75.90;98591.92;104916;1271;74912;-23
2022/01/20 00:56:22;;;;;;;7.30;3.30;;;;;;;-3.06;76.28;98589.61;104905;1271;74524;-23
2022/01/20 00:58:50;;;;;;;9.50;4.60;;;;;;;-3.35;77.42;98586.50;104872;1271;61147;-23
2022/01/20 01:01:19;;;;;;;5.60;4.20;;;;;;;-3.59;78.17;98580.80;105249;1271;61817;-22
2022/01/20 01:03:49;;;;;;;5.60;3.70;;;;;;;-3.49;78.09;98577.08;105155;1271;75463;-21
2022/01/20 01:09:15;;;;;;;5.40;4.00;;;;;;;-3.09;75.91;98568.51;104440;1271;74564;-25
2022/01/20 01:11:46;;;;;;;8.30;4.10;;;;;;;-3.23;76.20;98563.20;104915;1271;61006;-25
2022/01/20 01:14:16;;;;;;;8.10;3.10;;;;;;;-3.46;76.87;98555.23;104843;1271;61220;-23
2022/01/20 01:24:40;;;;;;;10.60;5.80;;;;;;;-3.32;76.07;98527.30;105155;1271;61143;-23
2022/01/20 01:27:10;;;;;;;9.50;5.10;;;;;;;-3.36;75.96;98521.67;104932;1272;61201;-23
2022/01/20 01:32:38;;;;;;;7.40;4.90;;;;;;;-3.86;77.67;98515.44;104939;1271;76066;-23
2022/01/20 01:35:09;;;;;;;11.00;6.10;;;;;;;-3.93;77.38;98515.84;104938;1271;74333;-23
2022/01/20 01:40:11;;;;;;;7.40;5.40;;;;;;;-3.35;75.99;98504.66;104933;1271;60990;-23
2022/01/20 01:42:45;;;;;;;11.60;4.40;;;;;;;-3.16;74.86;98502.85;104935;1271;75351;-23
2022/01/20 01:45:15;;;;;;;12.80;4.80;;;;;;;-3.40;75.45;98493.11;105068;1271;74547;-25
2022/01/20 01:47:44;;;;;;;7.40;4.30;;;;;;;-3.64;76.19;98487.59;105160;1271;72318;-25
2022/01/20 01:50:17;;;;;;;11.40;5.30;;;;;;;-3.76;76.22;98488.48;105229;1271;61159;-25
2022/01/20 01:52:46;;;;;;;4.90;3.10;;;;;;;-3.97;76.63;98484.27;105112;1271;61083;-25
2022/01/20 01:55:14;;;;;;;5.90;3.50;;;;;;;-4.07;77.62;98479.81;105215;1271;72598;-23
2022/01/20 01:57:44;;;;;;;9.50;5.30;;;;;;;-3.51;76.17;98472.24;105290;1271;75942;-23
2022/01/20 02:00:18;;;;;;;10.90;6.10;;;;;;;-3.33;74.89;98466.58;105133;1271;74811;-23
2022/01/20 02:02:49;;;;;;;12.40;7.00;;;;;;;-3.45;74.89;98462.21;105248;1271;61009;-23
2022/01/20 02:05:21;;;;;;;4.00;2.90;;;;;;;-3.67;75.30;98453.27;105162;1271;61135;-23
2022/01/20 02:19:16;;;;;;;12.20;4.70;;;;;;;-3.63;75.04;98437.89;105214;1271;61972;-23
2022/01/20 02:21:50;;;;;;;14.30;5.60;;;;;;;-3.78;75.20;98429.87;105277;1271;74570;-23
2022/01/20 02:24:20;;;;;;;9.40;4.00;;;;;;;-4.08;75.75;98420.48;105123;1271;74166;-23
2022/01/20 02:26:50;;;;;;;5.30;3.50;;;;;;;-4.32;76.72;98416.48;105287;1270;73339;-23
2022/01/20 02:29:26;;;;;;;7.20;3.80;;;;;;;-4.39;77.50;98419.41;105221;1271;61534;-23
2022/01/20 02:31:58;;;;;;;6.00;3.60;;;;;;;-3.99;76.31;98414.60;105275;1271;61000;-23
2022/01/20 02:34:29;;;;;;;6.80;4.40;;;;;;;-3.87;75.61;98410.49;105016;1271;74579;-23
2022/01/20 02:37:00;;;;;;;10.50;4.70;;;;;;;-3.93;75.37;98407.14;105046;1271;75999;-23
2022/01/20 02:39:48;;;;;;;7.40;2.90;;;;;;;-4.03;75.56;98402.35;105111;1271;74458;-23
2022/01/20 02:45:05;;;;;;;11.60;6.40;;;;;;;-4.48;76.98;98399.02;105287;1271;61029;-23
2022/01/20 02:47:33;;;;;;;5.30;4.60;;;;;;;-4.23;76.54;98397.73;104978;1271;75016;-23
2022/01/20 02:50:03;;;;;;;6.00;4.50;;;;;;;-3.82;75.13;98392.86;105177;1271;75967;-23
2022/01/20 02:52:35;;;;;;;4.50;2.90;;;;;;;-3.85;74.61;98382.09;105192;1271;73112;-23
2022/01/20 02:55:04;;;;;;;6.40;4.20;;;;;;;-4.05;74.96;98377.31;105217;1270;61156;-23
2022/01/20 02:57:34;;;;;;;8.90;5.30;;;;;;;-4.29;75.64;98373.18;104938;1271;61738;-23
2022/01/20 03:00:07;;;;;;;20.30;8.10;;;;;;;-4.54;76.35;98367.84;105174;1271;74947;-23
2022/01/20 03:02:38;;;;;;;8.90;4.20;;;;;;;-4.77;77.20;98363.79;104962;1272;76002;-23
2022/01/20 03:05:07;;;;;;;9.70;5.30;;;;;;;-4.44;77.07;98361.09;105138;1274;74433;-23
2022/01/20 03:07:37;;;;;;;8.50;4.30;;;;;;;-4.07;75.28;98358.39;105132;1271;61041;-23
2022/01/20 03:10:06;;;;;;;6.80;4.50;;;;;;;-4.12;74.94;98350.43;105161;1271;61277;-23
2022/01/20 03:12:34;;;;;;;14.50;7.30;;;;;;;-4.31;75.57;98346.13;105071;1271;75765;-23
2022/01/20 03:15:05;;;;;;;8.40;5.50;;;;;;;-4.56;76.23;98339.95;105283;1271;75710;-23
2022/01/20 03:17:33;;;;;;;12.30;6.50;;;;;;;-4.83;77.42;98339.41;105142;1271;73239;-23
2022/01/20 03:20:03;;;;;;;9.40;4.90;;;;;;;-4.86;77.60;98342.52;105260;1271;63626;-23
2022/01/20 03:22:31;;;;;;;6.20;4.20;;;;;;;-4.34;76.04;98347.38;105164;1271;61862;-23
2022/01/20 03:24:59;;;;;;;10.60;5.00;;;;;;;-4.09;75.19;98349.65;105159;1271;75687;-23
2022/01/20 03:27:30;;;;;;;6.10;4.20;;;;;;;-4.14;74.70;98349.80;105147;1271;76175;-23
2022/01/20 03:29:58;;;;;;;10.70;4.00;;;;;;;-4.35;75.31;98347.27;105159;1271;74247;-23
2022/01/20 03:32:27;;;;;;;8.50;4.30;;;;;;;-4.62;76.03;98349.96;105143;1271;61110;-23
2022/01/20 03:34:55;;;;;;;9.10;5.10;;;;;;;-4.84;77.19;98348.09;105254;1271;61019;-23
2022/01/20 03:37:23;;;;;;;13.40;6.30;;;;;;;-4.97;77.07;98347.10;105156;1270;72684;-23
2022/01/20 03:39:57;;;;;;;18.60;8.10;;;;;;;-4.93;77.78;98338.69;105217;1271;76399;-23
2022/01/20 03:42:25;;;;;;;12.00;5.40;;;;;;;-4.39;76.17;98336.04;104842;1271;74709;-23
2022/01/20 03:44:54;;;;;;;11.10;6.60;;;;;;;-4.18;74.61;98336.38;104925;1271;61144;-23
2022/01/20 03:47:24;;;;;;;15.40;6.60;;;;;;;-4.28;75.06;98334.65;104917;1271;61080;-23
2022/01/20 03:52:28;;;;;;;11.50;6.80;;;;;;;-4.65;75.89;98323.45;105052;1271;75774;-23
2022/01/20 03:54:57;;;;;;;12.60;4.90;;;;;;;-4.78;76.60;98324.02;104901;1271;74453;-23
2022/01/20 03:57:26;;;;;;;6.60;3.90;;;;;;;-4.66;76.30;98320.42;104931;1271;62777;-23
2022/01/20 03:59:57;;;;;;;13.30;7.20;;;;;;;-4.20;74.55;98320.85;104808;1271;62292;-23
2022/01/20 04:02:46;;;;;;;7.40;4.50;;;;;;;-4.04;73.86;98313.55;105267;1270;75525;-23
2022/01/20 04:05:29;;;;;;;17.30;7.40;;;;;;;-4.17;74.10;98315.31;105295;1271;76349;-23
2022/01/20 04:08:35;;;;;;;5.20;3.50;;;;;;;-4.36;74.70;98317.80;104733;1274;73226;-23
2022/01/20 04:11:17;;;;;;;9.40;4.70;;;;;;;-4.57;75.09;98314.08;104645;1271;61137;-24
2022/01/20 04:13:46;;;;;;;6.60;4.30;;;;;;;-4.70;75.84;98312.60;104731;1271;60927;-24
2022/01/20 04:16:37;;;;;;;4.90;3.90;;;;;;;-4.28;74.97;98309.75;105006;1271;73663;-25
2022/01/20 04:19:08;;;;;;;7.70;5.30;;;;;;;-4.04;73.79;98312.36;105035;1271;73781;-23
2022/01/20 04:21:38;;;;;;;13.80;7.20;;;;;;;-4.12;73.90;98310.08;104776;1271;74626;-23
2022/01/20 04:24:12;;;;;;;11.60;5.60;;;;;;;-4.18;73.68;98303.50;104719;1271;61159;-23
2022/01/20 04:26:43;;;;;;;15.90;7.30;;;;;;;-4.46;74.58;98305.75;104915;1271;61180;-23
2022/01/20 04:29:13;;;;;;;6.20;4.20;;;;;;;-4.65;75.34;98303.30;105185;1271;72847;-23
2022/01/20 04:31:42;;;;;;;9.00;5.70;;;;;;;-4.56;75.29;98301.14;104845;1271;73251;-23
2022/01/20 04:34:11;;;;;;;14.60;8.70;;;;;;;-4.00;74.11;98305.44;104981;1271;73337;-23
2022/01/20 04:36:43;;;;;;;3.00;2.70;;;;;;;-3.87;72.87;98302.61;105187;1271;61285;-23
2022/01/20 04:39:15;;;;;;;7.50;4.50;;;;;;;-3.89;72.76;98304.02;105180;1271;61067;-23
2022/01/20 04:41:44;;;;;;;6.40;3.90;;;;;;;-4.05;72.88;98310.20;105154;1271;75628;-23
2022/01/20 04:44:35;;;;;;;12.20;6.30;;;;;;;-4.34;73.18;98301.80;105273;1271;75806;-23
2022/01/20 04:47:26;;;;;;;6.60;3.90;;;;;;;-4.49;74.33;98302.63;105316;1271;74327;-23
2022/01/20 04:58:17;;;;;;;7.30;3.80;;;;;;;-3.84;72.08;98293.36;104890;1271;74815;-22
2022/01/20 05:00:46;;;;;;;11.30;4.30;;;;;;;-3.93;72.20;98289.95;104882;1271;211564;-23
2022/01/20 05:03:34;;;;;;;7.10;4.10;;;;;;;-4.17;72.53;98288.20;105317;1271;61131;-23
2022/01/20 05:06:17;;;;;;;8.20;4.70;;;;;;;-4.42;73.20;98281.38;105153;1271;61096;-24
2022/01/20 05:08:46;;;;;;;24.80;4.30;;;;;;;-4.62;74.06;98281.17;105018;1271;75465;-23
2022/01/20 05:11:15;;;;;;;14.40;3.50;;;;;;;-4.66;74.56;98277.92;104909;1271;75319;-23
2022/01/20 05:13:44;;;;;;;6.50;3.40;;;;;;;-4.14;73.26;98279.10;105135;1271;72473;-23
2022/01/20 05:16:13;;;;;;;7.50;4.20;;;;;;;-3.84;72.20;98272.15;105071;1271;61060;-24
2022/01/20 05:18:43;;;;;;;6.00;3.70;;;;;;;-3.93;71.92;98270.42;105006;1271;61652;-22
2022/01/20 05:21:11;;;;;;;11.20;4.00;;;;;;;-4.11;72.11;98271.73;105191;1271;74054;-23
2022/01/20 05:23:40;;;;;;;9.80;5.60;;;;;;;-4.32;72.58;98262.27;105310;1271;76156;-24
2022/01/20 05:26:11;;;;;;;9.80;5.40;;;;;;;-4.47;73.12;98255.13;104985;1271;73450;-25
2022/01/20 05:28:40;;;;;;;11.10;4.00;;;;;;;-4.60;74.10;98250.45;105074;1271;61225;-22
2022/01/20 05:31:08;;;;;;;5.90;2.70;;;;;;;-4.21;73.02;98251.90;105323;1271;61734;-24
2022/01/20 05:33:49;;;;;;;6.10;4.00;;;;;;;-3.79;71.47;98243.49;105295;1271;75656;-24
2022/01/20 05:36:23;;;;;;;12.00;6.00;;;;;;;-3.74;71.01;98243.64;105312;1271;74821;-23
2022/01/20 05:38:51;;;;;;;13.20;4.40;;;;;;;-3.96;71.57;98239.84;104890;1271;74396;-24
2022/01/20 05:41:20;;;;;;;13.40;5.60;;;;;;;-4.12;71.45;98240.40;104949;1271;61138;-24
2022/01/20 05:43:49;;;;;;;10.00;4.80;;;;;;;-4.31;72.22;98239.83;104980;1271;61020;-23
2022/01/20 05:46:22;;;;;;;10.40;4.60;;;;;;;-4.40;72.73;98241.34;104914;1271;73698;-23
2022/01/20 05:48:56;;;;;;;5.00;3.20;;;;;;;-4.54;72.87;98243.80;104948;1271;76089;-23
2022/01/20 05:51:38;;;;;;;9.20;6.30;;;;;;;-4.22;72.74;98245.13;104917;1271;73959;-23
2022/01/20 05:54:06;;;;;;;5.00;3.40;;;;;;;-3.78;71.39;98240.23;104693;1272;61136;-23
2022/01/20 05:56:35;;;;;;;12.30;6.20;;;;;;;-3.57;70.42;98237.96;105089;1271;62029;-23
2022/01/20 05:59:03;;;;;;;4.10;2.70;;;;;;;-3.76;70.39;98238.64;104896;1271;74579;-23
2022/01/20 06:01:36;;;;;;;19.30;5.20;;;;;;;-4.03;71.25;98231.27;105068;1271;75014;-23
2022/01/20 06:04:08;;;;;;;5.40;2.70;;;;;;;-4.30;71.75;98229.14;105258;1271;72927;-23
2022/01/20 06:06:36;;;;;;;6.90;5.10;;;;;;;-4.47;72.78;98224.44;105003;1272;62060;-23
2022/01/20 06:09:08;;;;;;;4.70;3.60;;;;;;;-4.62;73.43;98224.44;104988;1271;61108;-23
2022/01/20 06:11:36;;;;;;;3.60;2.50;;;;;;;-4.30;72.79;98221.52;104876;1271;73740;-23
2022/01/20 06:14:05;;;;;;;6.60;4.10;;;;;;;-3.78;71.38;98211.22;105082;1271;75151;-23
2022/01/20 06:16:35;;;;;;;11.80;6.20;;;;;;;-3.75;70.77;98203.48;105331;1271;74561;-23
2022/01/20 06:19:04;;;;;;;11.80;4.20;;;;;;;-3.97;70.85;98204.80;105160;1271;61398;-23
2022/01/20 06:21:33;;;;;;;8.90;5.80;;;;;;;-4.06;71.23;98207.81;105287;1271;61146;-23
2022/01/20 06:24:01;;;;;;;6.50;4.20;;;;;;;-4.16;71.70;98211.89;105126;1271;75651;-23
2022/01/20 06:26:30;;;;;;;7.70;4.30;;;;;;;-4.15;71.22;98222.19;105309;1271;76900;-23
2022/01/20 06:28:58;;;;;;;9.80;5.40;;;;;;;-4.24;71.51;98229.09;105262;1271;74325;-23
2022/01/20 06:31:29;;;;;;;9.50;4.10;;;;;;;-4.33;72.00;98231.77;105280;1271;61138;-23
2022/01/20 06:33:57;;;;;;;4.10;3.10;;;;;;;-3.92;71.56;98232.77;105176;1271;62058;-23
2022/01/20 06:36:26;;;;;;;6.50;4.30;;;;;;;-3.42;69.75;98231.80;105101;1271;75126;-23
2022/01/20 06:38:54;;;;;;;8.80;4.10;;;;;;;-3.42;69.42;98227.04;104919;1271;73711;-23
2022/01/20 06:41:23;;;;;;;4.80;2.90;;;;;;;-3.55;69.77;98214.96;105060;1271;72941;-23
2022/01/20 06:43:51;;;;;;;5.70;3.50;;;;;;;-3.70;70.04;98207.54;104888;1271;61946;-23
2022/01/20 06:46:20;;;;;;;4.00;2.20;;;;;;;-3.84;70.36;98204.83;104665;1274;61079;-25
2022/01/20 06:49:01;;;;;;;7.60;4.20;;;;;;;-4.02;70.85;98194.59;104944;1271;75527;-22
2022/01/20 06:51:30;;;;;;;8.00;3.20;;;;;;;-4.13;71.36;98184.98;105028;1271;76177;-23
2022/01/20 06:53:59;;;;;;;11.50;5.10;;;;;;;-4.15;71.45;98186.26;105263;1271;73505;-22
2022/01/20 06:56:28;;;;;;;5.60;3.50;;;;;;;-4.08;71.33;98173.45;105278;1271;63413;-22
2022/01/20 06:59:15;;;;;;;7.50;3.80;;;;;;;-3.42;69.93;98170.35;105268;1271;61160;-22
2022/01/20 07:01:44;;;;;;;8.00;4.70;;;;;;;-3.17;68.48;98171.77;104807;1271;74147;-24
2022/01/20 07:04:19;;;;;;;8.60;4.40;;;;;;;-3.12;68.28;98168.72;104906;1271;76518;-23
2022/01/20 07:06:47;;;;;;;5.40;3.60;;;;;;;-3.30;68.49;98164.48;105052;1271;73622;-23
2022/01/20 07:09:43;;;;;;;13.50;5.20;;;;;;;-3.35;68.83;98156.85;104839;1271;61845;-23
2022/01/20 07:12:34;;;;;;;15.10;4.80;;;;;;;-3.38;69.09;98153.06;104845;1271;61068;-25
2022/01/20 07:15:03;;;;;;;11.80;6.70;;;;;;;-3.46;69.09;98149.48;105095;1271;75497;-25
2022/01/20 07:17:32;;;;;;;13.60;5.00;;;;;;;-3.54;69.41;98151.30;105122;1271;75480;-25
2022/01/20 07:20:01;;;;;;;4.60;2.40;;;;;;;-3.50;69.64;98154.01;105086;1271;73570;-23
2022/01/20 07:22:30;;;;;;;4.20;2.80;;;;;;;-3.46;69.51;98158.45;104880;1271;61190;-23
2022/01/20 07:25:01;;;;;;;11.40;5.70;;;;;;;-3.38;69.73;98157.50;104984;1271;61795;-23
2022/01/20 07:27:58;;;;;;;9.50;4.20;;;;;;;-3.31;69.59;98148.88;105150;1271;74776;-23
2022/01/20 07:30:32;;;;;;;6.90;3.50;;;;;;;-3.24;69.49;98142.17;105323;1271;74426;-23
2022/01/20 07:33:03;;;;;;;9.30;3.70;;;;;;;-3.14;69.34;98144.67;104996;1271;73979;-24
2022/01/20 07:35:36;;;;;;;5.90;4.20;;;;;;;-3.05;69.21;98144.31;104885;1271;61303;-23
2022/01/20 07:38:05;;;;;;;6.80;4.30;;;;;;;-2.98;68.83;98139.61;104960;1271;61114;-23
2022/01/20 07:40:34;;;;;;;6.90;4.10;;;;;;;-2.96;68.63;98139.20;105077;1271;74206;-23
2022/01/20 07:43:02;;;;;;;4.00;2.40;;;;;;;-2.99;68.89;98148.29;105060;1271;75821;-23
2022/01/20 07:45:45;;;;;;;7.00;4.10;;;;;;;-2.94;68.66;98146.77;105265;1271;74396;-23
2022/01/20 07:48:28;;;;;;;10.30;5.10;;;;;;;-3.02;68.55;98139.91;105219;1271;61262;-23
2022/01/20 07:51:03;;;;;;;10.10;6.10;;;;;;;-2.97;68.65;98139.39;105278;1271;62135;-23
2022/01/20 07:53:35;;;;;;;14.10;5.00;;;;;;;-2.97;68.65;98141.08;105151;1271;75251;-23
2022/01/20 07:56:05;;;;;;;7.90;4.10;;;;;;;-2.91;68.49;98133.73;104813;1272;74452;-23
2022/01/20 07:58:34;;;;;;;9.40;3.90;;;;;;;-2.74;68.07;98137.42;104964;1274;74536;-23
2022/01/20 08:01:03;;;;;;;12.20;5.70;;;;;;;-2.57;67.67;98134.54;105060;1270;61294;-23
2022/01/20 08:03:35;;;;;;;8.80;4.10;;;;;;;-2.36;67.27;98129.02;104832;1271;61144;-23
2022/01/20 08:06:10;;;;;;;4.60;2.80;;;;;;;-2.19;66.84;98121.15;104970;1271;74010;-23
2022/01/20 08:08:41;;;;;;;14.70;6.20;;;;;;;-2.01;66.41;98119.35;105097;1271;76127;-23
2022/01/20 08:11:36;;;;;;;10.30;5.90;;;;;;;-1.66;66.13;98106.36;105104;1271;74571;-23
2022/01/20 08:14:50;;;;;;;4.90;2.70;;;;;;;-1.31;65.07;98092.13;104726;1274;61109;-23
2022/01/20 08:17:25;;;;;;;4.70;3.20;;;;;;;-1.16;64.94;98087.65;104839;1271;61082;-23
2022/01/20 08:19:54;;;;;;;6.80;4.00;;;;;;;-1.10;64.85;98088.89;104984;1271;75261;-23
2022/01/20 08:22:22;;;;;;;10.70;4.80;;;;;;;-0.90;64.47;98081.08;104793;1271;74709;-23
2022/01/20 08:25:07;;;;;;;13.30;4.90;;;;;;;-0.74;63.94;98090.19;104810;1271;73442;-23
2022/01/20 08:27:39;;;;;;;7.50;3.60;;;;;;;-0.68;63.51;98091.58;104727;1271;61114;-23
2022/01/20 08:30:10;;;;;;;7.50;3.50;;;;;;;-0.46;63.58;98093.23;104858;1271;61712;-23
2022/01/20 08:32:39;;;;;;;8.50;4.90;;;;;;;-0.36;63.01;98089.44;104686;1271;75218;-23
2022/01/20 08:35:20;;;;;;;9.80;4.50;;;;;;;-0.32;62.88;98083.61;104928;1271;75064;-23
2022/01/20 08:37:55;;;;;;;8.00;4.00;;;;;;;-0.24;62.46;98082.38;104705;1272;74474;-23
2022/01/20 08:40:24;;;;;;;7.90;4.20;;;;;;;-0.17;62.63;98080.10;104919;1271;61050;-23
2022/01/20 08:42:55;;;;;;;7.40;3.60;;;;;;;-0.06;62.17;98078.88;105076;1271;60986;-23
2022/01/20 08:45:28;;;;;;;6.70;4.20;;;;;;;0.02;62.16;98076.53;105135;1272;75364;-23
2022/01/20 08:47:57;;;;;;;;;;;;;;;0.04;61.85;98063.14;105148;1271;76508;-23
2022/01/20 08:50:32;;;;;;;5.70;3.80;;;;;;;0.14;62.06;98077.09;105154;1271;74572;-23
2022/01/20 08:53:00;;;;;;;7.80;4.40;;;;;;;0.33;61.79;98066.17;105094;1272;61039;-23
2022/01/20 08:55:29;;;;;;;9.30;4.70;;;;;;;0.35;61.56;98061.48;104980;1271;61045;-23
2022/01/20 08:58:04;;;;;;;6.40;4.10;;;;;;;0.19;61.72;98059.75;104866;1271;74702;-23
2022/01/20 09:00:34;;;;;;;9.80;4.30;;;;;;;0.08;62.30;98058.13;104905;1271;75982;-23
2022/01/20 09:03:04;;;;;;;7.40;3.70;;;;;;;0.08;62.87;98058.48;104680;1272;74348;-23
2022/01/20 09:05:33;;;;;;;11.70;5.90;;;;;;;0.09;62.75;98056.02;105075;1271;61230;-23
2022/01/20 09:08:12;;;;;;;9.20;4.50;;;;;;;0.12;62.80;98052.64;104945;1271;61016;-23
2022/01/20 09:10:53;;;;;;;11.20;4.10;;;;;;;0.16;63.27;98049.52;104878;1271;74500;-23
2022/01/20 09:16:11;;;;;;;7.80;4.20;;;;;;;0.09;64.08;98038.30;104856;1272;74757;-23
2022/01/20 09:19:00;;;;;;;4.90;3.10;;;;;;;0.07;64.31;98032.90;104657;1272;61131;-23
2022/01/20 09:21:34;;;;;;;9.00;5.00;;;;;;;-0.00;64.26;98023.25;105142;1271;61229;-23
2022/01/20 09:24:04;;;;;;;11.00;4.00;;;;;;;-0.01;64.58;98030.78;105119;1271;75283;-23
2022/01/20 09:26:33;;;;;;;8.30;4.40;;;;;;;-0.07;64.71;98012.56;104668;1274;73923;-23
2022/01/20 09:29:03;;;;;;;9.70;4.30;;;;;;;-0.18;65.59;98027.09;105115;1271;74387;-23
2022/01/20 09:31:37;;;;;;;9.20;4.00;;;;;;;-0.20;65.49;98015.45;105033;1271;61128;-23
2022/01/20 09:34:06;;;;;;;6.40;3.70;;;;;;;-0.24;65.89;98009.20;105132;1271;61156;-23
2022/01/20 09:36:37;;;;;;;6.00;3.60;;;;;;;-0.28;66.42;98014.52;105150;1271;75544;-23
2022/01/20 09:39:05;;;;;;;12.40;3.80;;;;;;;-0.30;66.55;98009.50;105145;1271;74474;-23
2022/01/20 09:41:50;;;;;;;5.60;3.30;;;;;;;-0.32;66.39;98007.52;105113;1271;72243;-23
2022/01/20 09:44:20;;;;;;;7.20;4.10;;;;;;;-0.30;66.55;97991.77;105076;1271;61127;-23
2022/01/20 09:46:48;;;;;;;11.10;6.10;;;;;;;0.16;66.06;97994.92;104866;1271;62045;-23
2022/01/20 09:49:49;;;;;;;6.50;3.80;;;;;;;0.69;64.46;97993.14;104637;1271;75618;-23
2022/01/20 09:52:27;;;;;;;8.20;3.60;;;;;;;0.71;64.28;97980.90;105133;1271;76060;-23
2022/01/20 09:55:09;;;;;;;6.70;3.60;;;;;;;0.73;64.19;97976.66;105078;1271;74140;-23
2022/01/20 09:57:37;;;;;;;6.20;3.10;;;;;;;0.72;64.69;97977.40;104942;1271;60997;-23
2022/01/20 10:00:09;;;;;;;6.50;3.50;;;;;;;0.62;64.48;97960.06;105068;1271;61226;-24
2022/01/20 10:02:52;;;;;;;5.70;3.40;;;;;;;0.48;65.47;97965.13;105149;1271;75295;-23
2022/01/20 10:05:44;;;;;;;11.00;4.40;;;;;;;0.38;65.71;97957.50;105125;1271;75177;-23
2022/01/20 10:08:16;;;;;;;7.80;3.90;;;;;;;0.30;66.19;97953.81;105137;1271;74187;-23
2022/01/20 10:11:09;;;;;;;8.70;4.20;;;;;;;0.25;66.33;97947.82;105051;1269;61141;-25
2022/01/20 10:14:08;;;;;;;9.80;4.40;;;;;;;0.15;67.02;97944.27;105044;1271;61563;-23
2022/01/20 10:16:51;;;;;;;6.40;4.40;;;;;;;0.10;67.08;97941.47;105022;1271;74565;-24
2022/01/20 10:19:29;;;;;;;6.00;4.10;;;;;;;0.08;67.40;97935.05;104953;1271;75270;-23
2022/01/20 10:22:16;;;;;;;5.00;3.10;;;;;;;0.45;66.74;97933.70;104814;1271;73371;-23
2022/01/20 10:25:09;;;;;;;20.40;4.50;;;;;;;1.04;64.87;97939.82;104835;1271;61128;-23
2022/01/20 10:27:59;;;;;;;5.00;2.80;;;;;;;1.10;64.27;97938.29;105147;1271;61097;-23
2022/01/20 10:30:28;;;;;;;5.40;3.40;;;;;;;0.89;64.36;97927.04;105160;1271;74605;-23
2022/01/20 10:33:00;;;;;;;5.50;3.20;;;;;;;0.71;65.40;97921.92;105099;1271;74318;-23
2022/01/20 10:35:36;;;;;;;7.10;3.60;;;;;;;0.62;65.29;97914.42;104812;1271;74173;-24
2022/01/20 10:38:13;;;;;;;9.70;4.70;;;;;;;0.52;65.42;97905.59;104776;1271;61090;-23
2022/01/20 10:40:54;;;;;;;8.30;5.60;;;;;;;0.47;65.92;97905.02;105125;1271;61344;-23
2022/01/20 10:43:31;;;;;;;9.70;4.50;;;;;;;0.44;65.77;97899.90;105111;1271;74761;-23
2022/01/20 10:46:12;;;;;;;8.80;3.60;;;;;;;0.42;65.88;97898.02;105144;1271;75938;-23
2022/01/20 10:48:40;;;;;;;6.10;3.20;;;;;;;0.38;65.81;97889.55;104931;1271;74631;-23
2022/01/20 10:51:16;;;;;;;7.10;3.90;;;;;;;0.41;66.08;97893.63;105055;1271;61363;-23
2022/01/20 10:54:01;;;;;;;6.40;3.40;;;;;;;0.40;66.07;97889.74;105147;1269;61954;-23
2022/01/20 10:56:45;;;;;;;6.20;3.80;;;;;;;0.43;65.86;97880.52;105074;1271;75418;-22
2022/01/20 10:59:14;;;;;;;12.90;5.20;;;;;;;0.54;66.17;97890.98;104956;1271;76028;-23
2022/01/20 11:01:42;;;;;;;8.50;4.10;;;;;;;0.59;66.06;97884.73;105109;1271;74416;-23
2022/01/20 11:04:16;;;;;;;9.20;3.90;;;;;;;0.56;66.40;97871.57;105092;1271;60994;-22
2022/01/20 11:06:44;;;;;;;4.40;3.20;;;;;;;0.64;66.04;97869.89;105141;1271;61952;-22
2022/01/20 11:09:45;;;;;;;6.30;3.60;;;;;;;1.21;64.11;97874.02;105099;1274;75491;-22
2022/01/20 11:12:36;;;;;;;8.20;4.40;;;;;;;1.53;63.59;97874.95;104888;1274;73503;-23
2022/01/20 11:15:18;;;;;;;5.30;3.80;;;;;;;1.46;63.26;97869.35;104688;1274;73584;-23
2022/01/20 11:17:52;;;;;;;7.30;4.00;;;;;;;1.33;63.35;97856.84;104566;1274;61157;-23
2022/01/20 11:20:22;;;;;;;5.20;4.00;;;;;;;1.20;63.99;97868.77;104859;1274;61121;-23
2022/01/20 11:23:04;;;;;;;4.60;3.10;;;;;;;1.08;64.19;97861.09;104600;1275;75755;-23
2022/01/20 11:25:39;;;;;;;6.40;3.50;;;;;;;1.04;64.35;97859.47;104717;1274;76524;-23
2022/01/20 11:28:31;;;;;;;6.70;4.00;;;;;;;0.96;65.12;97850.39;104627;1274;74369;-23
2022/01/20 11:31:15;;;;;;;8.90;3.70;;;;;;;0.84;65.75;97862.55;104732;1274;61179;-23
2022/01/20 11:33:55;;;;;;;4.70;3.20;;;;;;;0.81;65.45;97853.04;104853;1274;61110;-23
2022/01/20 11:36:25;;;;;;;5.60;3.00;;;;;;;0.78;66.18;97859.17;105013;1274;75808;-23
2022/01/20 11:39:14;;;;;;;6.80;3.60;;;;;;;0.72;66.32;97847.73;104629;1274;76109;-23
2022/01/20 11:41:46;;;;;;;5.80;2.80;;;;;;;0.66;66.90;97845.54;104792;1271;74459;-23
2022/01/20 11:44:16;;;;;;;4.30;2.80;;;;;;;0.64;66.64;97845.66;104929;1271;61022;-23
2022/01/20 11:46:46;;;;;;;5.90;3.00;;;;;;;0.58;66.80;97839.48;104899;1274;61801;-23
2022/01/20 11:49:16;;;;;;;7.70;4.10;;;;;;;0.88;67.06;97850.00;104748;1271;75788;-23
2022/01/20 11:51:50;;;;;;;5.40;2.70;;;;;;;1.52;65.17;97851.22;104928;1271;74446;-22
2022/01/20 11:54:34;;;;;;;4.80;3.10;;;;;;;1.82;63.63;97848.29;104706;1271;74365;-22
2022/01/20 11:57:30;;;;;;;4.90;2.40;;;;;;;1.67;63.78;97832.80;104873;1271;61029;-23
2022/01/20 12:00:01;;;;;;;5.10;3.00;;;;;;;1.52;64.12;97834.75;104775;1271;62010;-23
2022/01/20 12:02:40;;;;;;;2.70;2.10;;;;;;;1.28;64.49;97837.80;105118;1271;73280;-23
2022/01/20 12:05:20;;;;;;;8.60;3.50;;;;;;;1.22;65.31;97843.16;104908;1271;74121;-23
2022/01/20 12:08:18;;;;;;;7.40;3.90;;;;;;;0.97;66.12;97835.83;104888;1271;74215;-23
2022/01/20 12:11:08;;;;;;;4.70;2.70;;;;;;;0.92;66.27;97831.64;105100;1271;61311;-23
2022/01/20 12:13:49;;;;;;;8.20;3.60;;;;;;;0.84;66.54;97830.42;104963;1271;61128;-22
2022/01/20 12:16:19;;;;;;;7.60;3.60;;;;;;;0.77;66.89;97823.73;104730;1271;73912;-23
2022/01/20 12:18:50;;;;;;;9.70;4.20;;;;;;;0.72;67.29;97823.81;104891;1271;75987;-22
2022/01/20 12:21:18;;;;;;;4.70;3.20;;;;;;;0.68;67.18;97822.48;104666;1271;72276;-23
2022/01/20 12:23:48;;;;;;;6.20;3.10;;;;;;;0.65;67.55;97816.52;105020;1271;61134;-23
2022/01/20 12:26:16;;;;;;;4.30;3.20;;;;;;;1.03;66.88;97820.05;105055;1270;61713;-23
2022/01/20 12:28:45;;;;;;;5.30;2.60;;;;;;;1.58;65.68;97821.77;105006;1271;75706;-23
2022/01/20 12:31:14;;;;;;;5.50;3.70;;;;;;;1.64;64.78;97817.10;105069;1271;74418;-23
2022/01/20 12:33:44;;;;;;;5.50;2.90;;;;;;;1.57;64.92;97808.31;105061;1271;73340;-23
2022/01/20 12:36:17;;;;;;;4.30;2.80;;;;;;;1.41;65.23;97806.20;105045;1271;61185;-23
2022/01/20 12:38:47;;;;;;;5.40;3.00;;;;;;;1.26;66.00;97812.50;104788;1271;61966;-23
2022/01/20 12:41:17;;;;;;;5.10;3.40;;;;;;;1.10;66.18;97804.09;104814;1271;75265;-23
2022/01/20 12:44:03;;;;;;;7.70;4.70;;;;;;;1.00;66.63;97800.58;104887;1272;76015;-23
2022/01/20 12:46:34;;;;;;;3.60;2.20;;;;;;;0.87;67.34;97799.48;104990;1271;74241;-23
2022/01/20 12:49:04;;;;;;;4.20;2.40;;;;;;;0.81;67.82;97799.20;104813;1271;61224;-24
2022/01/20 12:51:38;;;;;;;5.90;3.10;;;;;;;0.76;68.10;97800.85;105099;1271;61038;-24
2022/01/20 12:54:10;;;;;;;4.50;3.10;;;;;;;0.72;68.39;97799.69;105140;1271;75841;-23
2022/01/20 12:56:41;;;;;;;5.70;3.00;;;;;;;0.83;68.33;97794.11;104913;1271;76001;-24
2022/01/20 12:59:10;;;;;;;4.30;2.60;;;;;;;1.41;66.78;97799.55;105125;1271;74904;-23
2022/01/20 13:02:00;;;;;;;3.80;2.50;;;;;;;1.72;65.73;97790.73;105068;1271;61141;-24
2022/01/20 13:04:30;;;;;;;4.40;2.70;;;;;;;1.65;65.89;97792.39;104859;1271;61076;-24
2022/01/20 13:07:01;;;;;;;5.40;2.90;;;;;;;1.46;66.03;97773.94;104812;1271;75707;-23
2022/01/20 13:09:38;;;;;;;8.50;3.40;;;;;;;1.29;66.61;97784.08;104899;1271;75918;-22